East Atlantic Beach, New York
Current Conditions -  °F | °C
As of 8:51 PM on Friday 21 Nov 2014 (Local Time) from KJFK Reporting Station
Clear Clear  
Wind Chill: 24°   Ceiling: Unl
Heat Index: 32°   Visibility: 10mi
Dew Point:   Wind: 9mph
Humidity: 38%   Direction: 330°NNW
Pressure: 30.5"   Gusts: NA
Location:  40.5892°N, 73.6427°W
Report Text: KJFK 220151Z 33008KT 10SM CLR 00/M13 A3050 RMK AO2 SLP328 T00001128 $
Loading
Personal Weather Stations






























Interactive Weather Map New forecast layout! Learn more

10-Day Weather Forecast

Advertisements
Track Severe Weather on mobile